Bookmark and Share
Track history (hours):
 

Izumi Maru No,3

Last reported at 2012-Aug-26 05:33 UTC. Time now 2014-Apr-21 12:16 UTC.
Position N 34°35' E 135°06'.
Warning: this ship's position is years out of date!

Length 72 m; draft 4.5 m.

Type: Tanker. MMSI: 431401481.

NotesDate/timePositionNaut miles runAvg speedWind from/ knotsBaromVisibWave heightAir tempDewpointWater temp
2012-Aug-26 05:33N 34°35' E 135°06'1010.2
2012-Aug-26 04:37N 34°34' E 135°17'7 6.7
2012-Aug-26 03:33N 34°33' E 135°26'0 0.3
2012-Aug-26 02:31N 34°33' E 135°26'0 0.0
2012-Aug-26 01:33N 34°33' E 135°26'0 0.0
2012-Aug-26 00:33N 34°33' E 135°26'1 1.2
2012-Aug-25 23:31N 34°33' E 135°25'5 5.0
2012-Aug-25 22:33N 34°32' E 135°19'0 0.0
2012-Aug-25 22:01N 34°32' E 135°19'0 0.0
2012-Aug-25 21:32N 34°32' E 135°19'0 0.0
2012-Aug-25 20:32N 34°32' E 135°19'0 0.0
2012-Aug-25 19:25N 34°32' E 135°19'0 0.0
2012-Aug-25 18:26N 34°32' E 135°19'0 0.0
2012-Aug-25 17:33N 34°32' E 135°19'0 0.0
2012-Aug-25 16:29N 34°32' E 135°19'0 0.1
2012-Aug-25 15:33N 34°32' E 135°19'0 0.0
2012-Aug-25 14:33N 34°32' E 135°19'0 0.1
2012-Aug-25 13:33N 34°32' E 135°19'4 4.0
2012-Aug-25 12:33N 34°33' E 135°15'1111.4
2012-Aug-25 11:33N 34°37' E 135°02'1211.6
2012-Aug-25 10:34N 34°33' E 134°48'10 0.2
2012-Aug-23 12:32N 34°38' E 134°60'9 9.6
2012-Aug-23 11:33N 34°35' E 135°11'10 9.8
2012-Aug-23 10:35N 34°34' E 135°22'3 2.7
2012-Aug-23 09:33N 34°32' E 135°25'0 0.0
2012-Aug-23 07:33N 34°32' E 135°25'2 1.7
2012-Aug-23 06:33N 34°33' E 135°23'1212.2
2012-Aug-23 05:33N 34°35' E 135°08'1010.5
2012-Aug-23 04:35N 34°36' E 134°56'  

Dump ship's entire track history

sailing weather and tide predictions

Izumi Maru No,3 — JM5955 — position and weather